sensor_id;sensor_type;location;lat;lon;timestamp;P1;durP1;ratioP1;P2;durP2;ratioP2
8480;SDS011;4277;51.354;6.740;2023-04-24T00:01:33;2.50;;;1.10;;
8480;SDS011;4277;51.354;6.740;2023-04-24T00:04:01;2.57;;;1.00;;
8480;SDS011;4277;51.354;6.740;2023-04-24T00:06:29;1.10;;;1.00;;
8480;SDS011;4277;51.354;6.740;2023-04-24T00:08:58;1.10;;;1.00;;
8480;SDS011;4277;51.354;6.740;2023-04-24T00:11:25;1.63;;;1.00;;
8480;SDS011;4277;51.354;6.740;2023-04-24T00:13:51;1.43;;;1.00;;
8480;SDS011;4277;51.354;6.740;2023-04-24T00:16:17;1.83;;;1.13;;
8480;SDS011;4277;51.354;6.740;2023-04-24T00:18:43;1.60;;;1.33;;
8480;SDS011;4277;51.354;6.740;2023-04-24T00:21:09;1.60;;;1.30;;
8480;SDS011;4277;51.354;6.740;2023-04-24T00:23:35;1.63;;;1.10;;
8480;SDS011;4277;51.354;6.740;2023-04-24T00:26:02;1.57;;;1.10;;
8480;SDS011;4277;51.354;6.740;2023-04-24T00:28:28;1.27;;;1.07;;
8480;SDS011;4277;51.354;6.740;2023-04-24T00:30:54;1.30;;;1.20;;
8480;SDS011;4277;51.354;6.740;2023-04-24T00:33:20;1.87;;;1.30;;
8480;SDS011;4277;51.354;6.740;2023-04-24T00:35:46;1.53;;;1.27;;
8480;SDS011;4277;51.354;6.740;2023-04-24T00:38:11;1.40;;;1.20;;
8480;SDS011;4277;51.354;6.740;2023-04-24T00:40:37;1.70;;;1.30;;
8480;SDS011;4277;51.354;6.740;2023-04-24T00:43:03;3.67;;;1.30;;
8480;SDS011;4277;51.354;6.740;2023-04-24T00:45:29;1.67;;;1.57;;
8480;SDS011;4277;51.354;6.740;2023-04-24T00:47:56;1.33;;;1.20;;
8480;SDS011;4277;51.354;6.740;2023-04-24T00:50:23;2.80;;;2.00;;
8480;SDS011;4277;51.354;6.740;2023-04-24T00:52:49;2.60;;;2.40;;
8480;SDS011;4277;51.354;6.740;2023-04-24T00:55:16;2.80;;;2.60;;
8480;SDS011;4277;51.354;6.740;2023-04-24T00:57:42;3.17;;;2.90;;
8480;SDS011;4277;51.354;6.740;2023-04-24T01:00:08;4.20;;;3.77;;
8480;SDS011;4277;51.354;6.740;2023-04-24T01:02:38;6.60;;;3.53;;
8480;SDS011;4277;51.354;6.740;2023-04-24T01:05:05;3.73;;;3.43;;
8480;SDS011;4277;51.354;6.740;2023-04-24T01:07:31;5.57;;;3.80;;
8480;SDS011;4277;51.354;6.740;2023-04-24T01:09:57;4.17;;;3.77;;
8480;SDS011;4277;51.354;6.740;2023-04-24T01:12:24;4.37;;;3.97;;
8480;SDS011;4277;51.354;6.740;2023-04-24T01:14:50;4.77;;;3.53;;
8480;SDS011;4277;51.354;6.740;2023-04-24T01:17:16;4.03;;;3.50;;
8480;SDS011;4277;51.354;6.740;2023-04-24T01:19:42;3.60;;;3.30;;
8480;SDS011;4277;51.354;6.740;2023-04-24T01:22:15;4.63;;;3.70;;
8480;SDS011;4277;51.354;6.740;2023-04-24T01:24:42;4.30;;;3.53;;
8480;SDS011;4277;51.354;6.740;2023-04-24T01:27:09;6.07;;;3.67;;
8480;SDS011;4277;51.354;6.740;2023-04-24T01:29:35;4.73;;;3.67;;
8480;SDS011;4277;51.354;6.740;2023-04-24T01:32:02;5.37;;;3.60;;
8480;SDS011;4277;51.354;6.740;2023-04-24T01:34:28;4.93;;;3.50;;
8480;SDS011;4277;51.354;6.740;2023-04-24T01:36:54;4.63;;;3.80;;
8480;SDS011;4277;51.354;6.740;2023-04-24T01:39:21;5.87;;;4.03;;
8480;SDS011;4277;51.354;6.740;2023-04-24T01:41:48;4.13;;;3.73;;
8480;SDS011;4277;51.354;6.740;2023-04-24T01:44:15;5.63;;;4.00;;
8480;SDS011;4277;51.354;6.740;2023-04-24T01:46:41;4.37;;;3.37;;
8480;SDS011;4277;51.354;6.740;2023-04-24T01:49:07;4.97;;;3.70;;
8480;SDS011;4277;51.354;6.740;2023-04-24T01:51:33;6.27;;;3.80;;
8480;SDS011;4277;51.354;6.740;2023-04-24T01:53:59;7.57;;;4.10;;
8480;SDS011;4277;51.354;6.740;2023-04-24T01:56:25;6.13;;;4.47;;
8480;SDS011;4277;51.354;6.740;2023-04-24T01:58:53;5.67;;;4.53;;
8480;SDS011;4277;51.354;6.740;2023-04-24T02:01:20;6.80;;;4.53;;
8480;SDS011;4277;51.354;6.740;2023-04-24T02:03:46;5.27;;;4.60;;
8480;SDS011;4277;51.354;6.740;2023-04-24T02:06:12;7.77;;;4.70;;
8480;SDS011;4277;51.354;6.740;2023-04-24T02:08:38;9.23;;;6.20;;
8480;SDS011;4277;51.354;6.740;2023-04-24T02:11:04;5.87;;;5.27;;
8480;SDS011;4277;51.354;6.740;2023-04-24T02:13:30;6.80;;;5.53;;
8480;SDS011;4277;51.354;6.740;2023-04-24T02:15:58;11.70;;;6.13;;
8480;SDS011;4277;51.354;6.740;2023-04-24T02:18:24;7.83;;;6.37;;
8480;SDS011;4277;51.354;6.740;2023-04-24T02:20:50;8.90;;;6.40;;
8480;SDS011;4277;51.354;6.740;2023-04-24T02:23:16;9.03;;;6.30;;
8480;SDS011;4277;51.354;6.740;2023-04-24T02:25:42;10.53;;;6.60;;
8480;SDS011;4277;51.354;6.740;2023-04-24T02:28:08;10.27;;;6.87;;
8480;SDS011;4277;51.354;6.740;2023-04-24T02:30:35;8.43;;;6.90;;
8480;SDS011;4277;51.354;6.740;2023-04-24T02:33:01;13.10;;;7.63;;
8480;SDS011;4277;51.354;6.740;2023-04-24T02:35:27;9.80;;;7.80;;
8480;SDS011;4277;51.354;6.740;2023-04-24T02:37:53;9.33;;;7.40;;
8480;SDS011;4277;51.354;6.740;2023-04-24T02:40:19;10.80;;;7.73;;
8480;SDS011;4277;51.354;6.740;2023-04-24T02:42:45;10.47;;;8.10;;
8480;SDS011;4277;51.354;6.740;2023-04-24T02:45:10;11.07;;;7.77;;
8480;SDS011;4277;51.354;6.740;2023-04-24T02:47:36;10.70;;;8.43;;
8480;SDS011;4277;51.354;6.740;2023-04-24T02:50:02;10.33;;;8.40;;
8480;SDS011;4277;51.354;6.740;2023-04-24T02:52:29;12.23;;;8.37;;
8480;SDS011;4277;51.354;6.740;2023-04-24T02:54:55;11.43;;;8.87;;
8480;SDS011;4277;51.354;6.740;2023-04-24T02:57:21;10.67;;;8.60;;
8480;SDS011;4277;51.354;6.740;2023-04-24T02:59:46;13.93;;;8.03;;
8480;SDS011;4277;51.354;6.740;2023-04-24T03:02:12;12.07;;;8.40;;
8480;SDS011;4277;51.354;6.740;2023-04-24T03:04:38;12.00;;;8.83;;
8480;SDS011;4277;51.354;6.740;2023-04-24T03:07:04;16.10;;;9.60;;
8480;SDS011;4277;51.354;6.740;2023-04-24T03:09:30;13.93;;;8.93;;
8480;SDS011;4277;51.354;6.740;2023-04-24T03:11:56;12.10;;;8.77;;
8480;SDS011;4277;51.354;6.740;2023-04-24T03:14:23;11.90;;;9.03;;
8480;SDS011;4277;51.354;6.740;2023-04-24T03:16:49;13.07;;;9.37;;
8480;SDS011;4277;51.354;6.740;2023-04-24T03:19:15;14.10;;;9.27;;
8480;SDS011;4277;51.354;6.740;2023-04-24T03:21:41;14.33;;;9.20;;
8480;SDS011;4277;51.354;6.740;2023-04-24T03:24:10;15.70;;;8.77;;
8480;SDS011;4277;51.354;6.740;2023-04-24T03:26:36;12.63;;;9.30;;
8480;SDS011;4277;51.354;6.740;2023-04-24T03:29:02;11.77;;;9.07;;
8480;SDS011;4277;51.354;6.740;2023-04-24T03:31:28;16.97;;;9.70;;
8480;SDS011;4277;51.354;6.740;2023-04-24T03:33:54;11.37;;;9.30;;
8480;SDS011;4277;51.354;6.740;2023-04-24T03:36:20;13.63;;;9.60;;
8480;SDS011;4277;51.354;6.740;2023-04-24T03:38:46;12.70;;;9.13;;
8480;SDS011;4277;51.354;6.740;2023-04-24T03:41:12;13.53;;;9.30;;
8480;SDS011;4277;51.354;6.740;2023-04-24T03:43:38;12.27;;;8.93;;
8480;SDS011;4277;51.354;6.740;2023-04-24T03:46:04;11.87;;;8.57;;
8480;SDS011;4277;51.354;6.740;2023-04-24T03:48:30;14.47;;;9.10;;
8480;SDS011;4277;51.354;6.740;2023-04-24T03:50:56;10.93;;;8.50;;
8480;SDS011;4277;51.354;6.740;2023-04-24T03:53:22;12.33;;;8.13;;
8480;SDS011;4277;51.354;6.740;2023-04-24T03:55:48;12.73;;;8.73;;
8480;SDS011;4277;51.354;6.740;2023-04-24T03:58:14;11.33;;;8.70;;
8480;SDS011;4277;51.354;6.740;2023-04-24T04:00:40;10.30;;;8.40;;
8480;SDS011;4277;51.354;6.740;2023-04-24T04:03:06;13.80;;;9.33;;
8480;SDS011;4277;51.354;6.740;2023-04-24T04:05:32;12.20;;;8.50;;
8480;SDS011;4277;51.354;6.740;2023-04-24T04:07:58;12.80;;;8.33;;
8480;SDS011;4277;51.354;6.740;2023-04-24T04:10:25;11.13;;;7.73;;
8480;SDS011;4277;51.354;6.740;2023-04-24T04:12:51;10.53;;;8.20;;
8480;SDS011;4277;51.354;6.740;2023-04-24T04:15:16;13.03;;;7.93;;
8480;SDS011;4277;51.354;6.740;2023-04-24T04:17:42;14.07;;;8.10;;
8480;SDS011;4277;51.354;6.740;2023-04-24T04:20:08;9.63;;;8.30;;
8480;SDS011;4277;51.354;6.740;2023-04-24T04:22:35;12.80;;;8.67;;
8480;SDS011;4277;51.354;6.740;2023-04-24T04:25:01;12.77;;;9.23;;
8480;SDS011;4277;51.354;6.740;2023-04-24T04:27:28;11.70;;;8.20;;
8480;SDS011;4277;51.354;6.740;2023-04-24T04:29:56;12.00;;;7.83;;
8480;SDS011;4277;51.354;6.740;2023-04-24T04:32:22;12.63;;;8.30;;
8480;SDS011;4277;51.354;6.740;2023-04-24T04:34:48;11.73;;;8.40;;
8480;SDS011;4277;51.354;6.740;2023-04-24T04:37:18;12.17;;;8.60;;
8480;SDS011;4277;51.354;6.740;2023-04-24T04:39:44;9.67;;;7.73;;
8480;SDS011;4277;51.354;6.740;2023-04-24T04:42:10;11.43;;;8.07;;
8480;SDS011;4277;51.354;6.740;2023-04-24T04:44:36;11.00;;;7.80;;
8480;SDS011;4277;51.354;6.740;2023-04-24T04:47:03;11.33;;;7.60;;
8480;SDS011;4277;51.354;6.740;2023-04-24T04:49:33;12.63;;;7.70;;
8480;SDS011;4277;51.354;6.740;2023-04-24T04:51:59;10.27;;;7.30;;
8480;SDS011;4277;51.354;6.740;2023-04-24T04:54:25;9.70;;;7.60;;
8480;SDS011;4277;51.354;6.740;2023-04-24T04:56:51;8.83;;;6.23;;
8480;SDS011;4277;51.354;6.740;2023-04-24T04:59:17;7.83;;;6.73;;
8480;SDS011;4277;51.354;6.740;2023-04-24T05:01:43;8.43;;;6.60;;
8480;SDS011;4277;51.354;6.740;2023-04-24T05:04:09;8.77;;;7.27;;
8480;SDS011;4277;51.354;6.740;2023-04-24T05:06:35;7.33;;;6.53;;
8480;SDS011;4277;51.354;6.740;2023-04-24T05:09:01;9.73;;;6.80;;
8480;SDS011;4277;51.354;6.740;2023-04-24T05:11:28;8.27;;;7.07;;
8480;SDS011;4277;51.354;6.740;2023-04-24T05:13:54;8.10;;;7.30;;
8480;SDS011;4277;51.354;6.740;2023-04-24T05:16:20;10.57;;;7.67;;
8480;SDS011;4277;51.354;6.740;2023-04-24T05:18:46;10.37;;;7.73;;
8480;SDS011;4277;51.354;6.740;2023-04-24T05:21:12;10.57;;;8.30;;
8480;SDS011;4277;51.354;6.740;2023-04-24T05:23:38;11.50;;;8.03;;
8480;SDS011;4277;51.354;6.740;2023-04-24T05:26:04;12.67;;;8.40;;
8480;SDS011;4277;51.354;6.740;2023-04-24T05:28:31;13.70;;;8.13;;
8480;SDS011;4277;51.354;6.740;2023-04-24T05:30:57;10.23;;;8.30;;
8480;SDS011;4277;51.354;6.740;2023-04-24T05:33:24;9.93;;;7.97;;
8480;SDS011;4277;51.354;6.740;2023-04-24T05:35:50;9.53;;;7.30;;
8480;SDS011;4277;51.354;6.740;2023-04-24T05:38:16;8.97;;;7.77;;
8480;SDS011;4277;51.354;6.740;2023-04-24T05:40:46;8.37;;;7.50;;
8480;SDS011;4277;51.354;6.740;2023-04-24T05:43:12;8.93;;;7.00;;
8480;SDS011;4277;51.354;6.740;2023-04-24T05:45:38;8.83;;;7.23;;
8480;SDS011;4277;51.354;6.740;2023-04-24T05:48:04;9.75;;;7.60;;
8480;SDS011;4277;51.354;6.740;2023-04-24T05:50:30;8.00;;;7.17;;
8480;SDS011;4277;51.354;6.740;2023-04-24T05:52:56;8.40;;;7.57;;
8480;SDS011;4277;51.354;6.740;2023-04-24T05:55:27;7.80;;;6.30;;
8480;SDS011;4277;51.354;6.740;2023-04-24T05:57:53;11.37;;;7.13;;
8480;SDS011;4277;51.354;6.740;2023-04-24T06:00:19;7.47;;;5.93;;
8480;SDS011;4277;51.354;6.740;2023-04-24T06:02:46;7.00;;;6.03;;
8480;SDS011;4277;51.354;6.740;2023-04-24T06:05:12;9.20;;;6.60;;
8480;SDS011;4277;51.354;6.740;2023-04-24T06:07:38;7.43;;;6.23;;
8480;SDS011;4277;51.354;6.740;2023-04-24T06:10:04;7.23;;;6.50;;
8480;SDS011;4277;51.354;6.740;2023-04-24T06:12:30;7.40;;;6.60;;
8480;SDS011;4277;51.354;6.740;2023-04-24T06:14:56;8.37;;;7.30;;
8480;SDS011;4277;51.354;6.740;2023-04-24T06:17:22;8.33;;;7.10;;
8480;SDS011;4277;51.354;6.740;2023-04-24T06:19:48;10.53;;;7.27;;
8480;SDS011;4277;51.354;6.740;2023-04-24T06:22:14;8.40;;;6.00;;
8480;SDS011;4277;51.354;6.740;2023-04-24T06:24:40;6.97;;;6.27;;
8480;SDS011;4277;51.354;6.740;2023-04-24T06:27:06;7.30;;;6.43;;
8480;SDS011;4277;51.354;6.740;2023-04-24T06:29:32;6.80;;;5.87;;
8480;SDS011;4277;51.354;6.740;2023-04-24T06:31:58;7.67;;;6.43;;
8480;SDS011;4277;51.354;6.740;2023-04-24T06:34:24;6.90;;;6.20;;
8480;SDS011;4277;51.354;6.740;2023-04-24T06:36:50;7.87;;;5.70;;
8480;SDS011;4277;51.354;6.740;2023-04-24T06:39:17;5.77;;;5.17;;
8480;SDS011;4277;51.354;6.740;2023-04-24T06:41:42;5.70;;;5.07;;
8480;SDS011;4277;51.354;6.740;2023-04-24T06:44:08;5.30;;;4.80;;
8480;SDS011;4277;51.354;6.740;2023-04-24T06:46:34;4.87;;;4.23;;
8480;SDS011;4277;51.354;6.740;2023-04-24T06:49:00;5.40;;;4.03;;
8480;SDS011;4277;51.354;6.740;2023-04-24T06:51:26;4.43;;;4.03;;
8480;SDS011;4277;51.354;6.740;2023-04-24T06:53:53;6.13;;;4.10;;
8480;SDS011;4277;51.354;6.740;2023-04-24T06:56:19;5.80;;;3.80;;
8480;SDS011;4277;51.354;6.740;2023-04-24T06:58:45;6.37;;;4.00;;
8480;SDS011;4277;51.354;6.740;2023-04-24T07:01:11;4.93;;;4.20;;
8480;SDS011;4277;51.354;6.740;2023-04-24T07:03:37;4.97;;;4.20;;
8480;SDS011;4277;51.354;6.740;2023-04-24T07:06:04;4.47;;;3.80;;
8480;SDS011;4277;51.354;6.740;2023-04-24T07:08:30;6.50;;;4.17;;
8480;SDS011;4277;51.354;6.740;2023-04-24T07:10:56;3.90;;;3.50;;
8480;SDS011;4277;51.354;6.740;2023-04-24T07:13:22;4.03;;;3.30;;
8480;SDS011;4277;51.354;6.740;2023-04-24T07:15:48;4.30;;;2.97;;
8480;SDS011;4277;51.354;6.740;2023-04-24T07:18:16;3.13;;;2.50;;
8480;SDS011;4277;51.354;6.740;2023-04-24T07:20:42;5.10;;;2.97;;
8480;SDS011;4277;51.354;6.740;2023-04-24T07:23:08;1.80;;;1.70;;
8480;SDS011;4277;51.354;6.740;2023-04-24T07:25:34;1.97;;;1.73;;
8480;SDS011;4277;51.354;6.740;2023-04-24T07:28:00;1.50;;;1.40;;
8480;SDS011;4277;51.354;6.740;2023-04-24T07:30:26;3.03;;;0.80;;
8480;SDS011;4277;51.354;6.740;2023-04-24T07:32:54;2.20;;;0.90;;
8480;SDS011;4277;51.354;6.740;2023-04-24T07:35:20;0.73;;;0.73;;
8480;SDS011;4277;51.354;6.740;2023-04-24T07:37:46;0.83;;;0.60;;
8480;SDS011;4277;51.354;6.740;2023-04-24T07:40:13;0.67;;;0.67;;
8480;SDS011;4277;51.354;6.740;2023-04-24T07:42:39;0.37;;;0.37;;
8480;SDS011;4277;51.354;6.740;2023-04-24T07:45:05;0.50;;;0.50;;
8480;SDS011;4277;51.354;6.740;2023-04-24T07:47:31;0.87;;;0.73;;
8480;SDS011;4277;51.354;6.740;2023-04-24T07:49:58;1.70;;;0.60;;
8480;SDS011;4277;51.354;6.740;2023-04-24T07:52:24;0.57;;;0.40;;
8480;SDS011;4277;51.354;6.740;2023-04-24T07:54:50;0.60;;;0.50;;
8480;SDS011;4277;51.354;6.740;2023-04-24T07:57:23;0.90;;;0.53;;
8480;SDS011;4277;51.354;6.740;2023-04-24T07:59:49;1.40;;;0.40;;
8480;SDS011;4277;51.354;6.740;2023-04-24T08:02:15;0.80;;;0.67;;
8480;SDS011;4277;51.354;6.740;2023-04-24T08:04:41;1.63;;;0.70;;
8480;SDS011;4277;51.354;6.740;2023-04-24T08:07:07;3.23;;;0.93;;
8480;SDS011;4277;51.354;6.740;2023-04-24T08:09:33;1.70;;;1.00;;
8480;SDS011;4277;51.354;6.740;2023-04-24T08:11:59;1.07;;;1.00;;
8480;SDS011;4277;51.354;6.740;2023-04-24T08:14:26;1.10;;;1.00;;
8480;SDS011;4277;51.354;6.740;2023-04-24T08:16:53;1.13;;;1.07;;
8480;SDS011;4277;51.354;6.740;2023-04-24T08:19:20;1.03;;;0.90;;
8480;SDS011;4277;51.354;6.740;2023-04-24T08:21:46;1.30;;;1.20;;
8480;SDS011;4277;51.354;6.740;2023-04-24T08:24:12;3.63;;;1.03;;
8480;SDS011;4277;51.354;6.740;2023-04-24T08:26:39;1.97;;;1.20;;
8480;SDS011;4277;51.354;6.740;2023-04-24T08:29:05;2.90;;;1.50;;
8480;SDS011;4277;51.354;6.740;2023-04-24T08:31:31;2.60;;;1.13;;
8480;SDS011;4277;51.354;6.740;2023-04-24T08:33:57;0.93;;;0.80;;
8480;SDS011;4277;51.354;6.740;2023-04-24T08:36:24;1.23;;;0.90;;
8480;SDS011;4277;51.354;6.740;2023-04-24T08:38:50;0.90;;;0.63;;
8480;SDS011;4277;51.354;6.740;2023-04-24T08:41:17;1.37;;;0.80;;
8480;SDS011;4277;51.354;6.740;2023-04-24T08:43:43;1.20;;;0.70;;
8480;SDS011;4277;51.354;6.740;2023-04-24T08:46:11;1.30;;;1.00;;
8480;SDS011;4277;51.354;6.740;2023-04-24T08:48:38;2.10;;;0.97;;
8480;SDS011;4277;51.354;6.740;2023-04-24T08:51:08;2.43;;;0.93;;
8480;SDS011;4277;51.354;6.740;2023-04-24T08:53:34;2.90;;;1.20;;
8480;SDS011;4277;51.354;6.740;2023-04-24T08:56:01;1.30;;;1.20;;
8480;SDS011;4277;51.354;6.740;2023-04-24T08:58:27;1.93;;;1.30;;
8480;SDS011;4277;51.354;6.740;2023-04-24T09:00:56;2.00;;;1.63;;
8480;SDS011;4277;51.354;6.740;2023-04-24T09:03:23;2.30;;;2.10;;
8480;SDS011;4277;51.354;6.740;2023-04-24T09:05:49;2.67;;;2.43;;
8480;SDS011;4277;51.354;6.740;2023-04-24T09:08:16;3.10;;;2.83;;
8480;SDS011;4277;51.354;6.740;2023-04-24T09:10:43;5.03;;;3.40;;
8480;SDS011;4277;51.354;6.740;2023-04-24T09:13:09;4.00;;;3.60;;
8480;SDS011;4277;51.354;6.740;2023-04-24T09:15:36;5.47;;;3.63;;
8480;SDS011;4277;51.354;6.740;2023-04-24T09:18:03;4.37;;;3.97;;
8480;SDS011;4277;51.354;6.740;2023-04-24T09:20:29;4.77;;;4.27;;
8480;SDS011;4277;51.354;6.740;2023-04-24T09:22:59;5.20;;;4.70;;
8480;SDS011;4277;51.354;6.740;2023-04-24T09:25:30;7.27;;;4.80;;
8480;SDS011;4277;51.354;6.740;2023-04-24T09:27:59;6.80;;;5.17;;
8480;SDS011;4277;51.354;6.740;2023-04-24T09:30:26;5.83;;;4.97;;
8480;SDS011;4277;51.354;6.740;2023-04-24T09:33:12;6.70;;;5.07;;
8480;SDS011;4277;51.354;6.740;2023-04-24T09:35:40;7.67;;;4.90;;
8480;SDS011;4277;51.354;6.740;2023-04-24T09:38:06;7.73;;;4.87;;
8480;SDS011;4277;51.354;6.740;2023-04-24T09:40:34;7.60;;;5.23;;
8480;SDS011;4277;51.354;6.740;2023-04-24T09:43:00;8.70;;;5.37;;
8480;SDS011;4277;51.354;6.740;2023-04-24T09:45:28;8.97;;;5.10;;
8480;SDS011;4277;51.354;6.740;2023-04-24T09:48:00;8.23;;;5.67;;
8480;SDS011;4277;51.354;6.740;2023-04-24T09:50:26;8.53;;;5.57;;
8480;SDS011;4277;51.354;6.740;2023-04-24T09:52:59;9.37;;;5.73;;
8480;SDS011;4277;51.354;6.740;2023-04-24T09:55:26;9.37;;;6.10;;
8480;SDS011;4277;51.354;6.740;2023-04-24T10:00:26;7.87;;;5.53;;
8480;SDS011;4277;51.354;6.740;2023-04-24T10:02:56;8.73;;;5.50;;
8480;SDS011;4277;51.354;6.740;2023-04-24T10:05:23;8.77;;;5.43;;
8480;SDS011;4277;51.354;6.740;2023-04-24T10:07:49;9.63;;;5.63;;
8480;SDS011;4277;51.354;6.740;2023-04-24T10:10:15;10.47;;;4.80;;
8480;SDS011;4277;51.354;6.740;2023-04-24T10:12:41;10.30;;;4.70;;
8480;SDS011;4277;51.354;6.740;2023-04-24T10:15:09;8.27;;;4.67;;
8480;SDS011;4277;51.354;6.740;2023-04-24T10:17:37;9.83;;;5.00;;
8480;SDS011;4277;51.354;6.740;2023-04-24T10:20:03;9.90;;;4.53;;
8480;SDS011;4277;51.354;6.740;2023-04-24T10:22:31;7.63;;;3.80;;
8480;SDS011;4277;51.354;6.740;2023-04-24T10:24:57;7.50;;;3.77;;
8480;SDS011;4277;51.354;6.740;2023-04-24T10:27:24;6.90;;;3.60;;
8480;SDS011;4277;51.354;6.740;2023-04-24T10:29:52;6.63;;;3.83;;
8480;SDS011;4277;51.354;6.740;2023-04-24T10:32:18;8.63;;;3.50;;
8480;SDS011;4277;51.354;6.740;2023-04-24T10:34:44;10.17;;;3.70;;
8480;SDS011;4277;51.354;6.740;2023-04-24T10:37:10;8.63;;;3.67;;
8480;SDS011;4277;51.354;6.740;2023-04-24T10:39:38;6.90;;;3.60;;
8480;SDS011;4277;51.354;6.740;2023-04-24T10:42:15;11.33;;;4.13;;
8480;SDS011;4277;51.354;6.740;2023-04-24T10:44:40;8.70;;;3.77;;
8480;SDS011;4277;51.354;6.740;2023-04-24T10:47:07;6.23;;;3.67;;
8480;SDS011;4277;51.354;6.740;2023-04-24T10:49:39;12.03;;;3.73;;
8480;SDS011;4277;51.354;6.740;2023-04-24T10:52:05;10.67;;;4.33;;
8480;SDS011;4277;51.354;6.740;2023-04-24T10:59:44;9.57;;;4.00;;
8480;SDS011;4277;51.354;6.740;2023-04-24T11:02:10;10.57;;;3.90;;
8480;SDS011;4277;51.354;6.740;2023-04-24T11:04:36;11.53;;;5.30;;
8480;SDS011;4277;51.354;6.740;2023-04-24T11:07:02;11.70;;;5.23;;
8480;SDS011;4277;51.354;6.740;2023-04-24T11:09:31;6.90;;;3.97;;
8480;SDS011;4277;51.354;6.740;2023-04-24T11:12:05;15.93;;;4.87;;
8480;SDS011;4277;51.354;6.740;2023-04-24T11:15:20;13.10;;;4.20;;
8480;SDS011;4277;51.354;6.740;2023-04-24T11:17:32;10.53;;;4.30;;
8480;SDS011;4277;51.354;6.740;2023-04-24T11:20:03;8.53;;;3.80;;
8480;SDS011;4277;51.354;6.740;2023-04-24T11:22:32;9.47;;;3.97;;
8480;SDS011;4277;51.354;6.740;2023-04-24T11:25:00;8.30;;;4.03;;
8480;SDS011;4277;51.354;6.740;2023-04-24T11:27:28;10.77;;;3.90;;
8480;SDS011;4277;51.354;6.740;2023-04-24T11:34:57;8.97;;;3.63;;
8480;SDS011;4277;51.354;6.740;2023-04-24T11:37:24;8.00;;;3.20;;
8480;SDS011;4277;51.354;6.740;2023-04-24T11:39:51;8.20;;;3.43;;
8480;SDS011;4277;51.354;6.740;2023-04-24T11:42:17;6.83;;;2.90;;
8480;SDS011;4277;51.354;6.740;2023-04-24T11:44:43;10.60;;;3.10;;
8480;SDS011;4277;51.354;6.740;2023-04-24T11:47:12;6.47;;;2.90;;
8480;SDS011;4277;51.354;6.740;2023-04-24T11:49:38;6.23;;;2.80;;
8480;SDS011;4277;51.354;6.740;2023-04-24T11:52:04;7.67;;;2.70;;
8480;SDS011;4277;51.354;6.740;2023-04-24T11:54:31;6.60;;;2.60;;
8480;SDS011;4277;51.354;6.740;2023-04-24T11:56:57;5.37;;;2.90;;
8480;SDS011;4277;51.354;6.740;2023-04-24T11:59:23;9.13;;;2.80;;
8480;SDS011;4277;51.354;6.740;2023-04-24T12:01:49;9.67;;;3.27;;
8480;SDS011;4277;51.354;6.740;2023-04-24T12:04:16;6.40;;;2.80;;
8480;SDS011;4277;51.354;6.740;2023-04-24T12:07:01;12.37;;;3.37;;
8480;SDS011;4277;51.354;6.740;2023-04-24T12:09:27;6.67;;;2.67;;
8480;SDS011;4277;51.354;6.740;2023-04-24T12:11:53;7.87;;;3.07;;
8480;SDS011;4277;51.354;6.740;2023-04-24T12:14:21;8.23;;;2.70;;
8480;SDS011;4277;51.354;6.740;2023-04-24T12:16:48;6.03;;;2.30;;
8480;SDS011;4277;51.354;6.740;2023-04-24T12:19:18;6.97;;;2.67;;
8480;SDS011;4277;51.354;6.740;2023-04-24T12:21:45;9.27;;;2.97;;
8480;SDS011;4277;51.354;6.740;2023-04-24T12:24:23;6.43;;;2.60;;
8480;SDS011;4277;51.354;6.740;2023-04-24T12:26:49;7.20;;;2.80;;
8480;SDS011;4277;51.354;6.740;2023-04-24T12:29:22;4.43;;;2.07;;
8480;SDS011;4277;51.354;6.740;2023-04-24T12:31:48;9.27;;;2.53;;
8480;SDS011;4277;51.354;6.740;2023-04-24T12:34:20;6.97;;;2.37;;
8480;SDS011;4277;51.354;6.740;2023-04-24T12:36:46;7.33;;;2.33;;
8480;SDS011;4277;51.354;6.740;2023-04-24T12:39:16;4.90;;;2.10;;
8480;SDS011;4277;51.354;6.740;2023-04-24T12:41:55;5.77;;;2.00;;
8480;SDS011;4277;51.354;6.740;2023-04-24T12:44:31;6.23;;;2.13;;
8480;SDS011;4277;51.354;6.740;2023-04-24T12:46:59;4.73;;;2.17;;
8480;SDS011;4277;51.354;6.740;2023-04-24T12:49:25;5.57;;;2.03;;
8480;SDS011;4277;51.354;6.740;2023-04-24T12:51:51;6.00;;;1.97;;
8480;SDS011;4277;51.354;6.740;2023-04-24T12:54:17;3.17;;;2.00;;
8480;SDS011;4277;51.354;6.740;2023-04-24T12:56:43;5.90;;;1.80;;
8480;SDS011;4277;51.354;6.740;2023-04-24T12:59:09;5.70;;;1.70;;
8480;SDS011;4277;51.354;6.740;2023-04-24T13:01:35;5.27;;;1.90;;
8480;SDS011;4277;51.354;6.740;2023-04-24T13:04:01;2.33;;;1.30;;
8480;SDS011;4277;51.354;6.740;2023-04-24T13:06:27;4.20;;;1.60;;
8480;SDS011;4277;51.354;6.740;2023-04-24T13:08:52;4.27;;;1.50;;
8480;SDS011;4277;51.354;6.740;2023-04-24T13:11:20;4.67;;;1.70;;
8480;SDS011;4277;51.354;6.740;2023-04-24T13:13:46;2.53;;;1.40;;
8480;SDS011;4277;51.354;6.740;2023-04-24T13:16:12;3.50;;;1.47;;
8480;SDS011;4277;51.354;6.740;2023-04-24T13:18:38;2.70;;;1.37;;
8480;SDS011;4277;51.354;6.740;2023-04-24T13:21:04;2.87;;;1.20;;
8480;SDS011;4277;51.354;6.740;2023-04-24T13:23:30;5.00;;;1.33;;
8480;SDS011;4277;51.354;6.740;2023-04-24T13:25:56;4.10;;;1.20;;
8480;SDS011;4277;51.354;6.740;2023-04-24T13:28:23;2.97;;;1.30;;
8480;SDS011;4277;51.354;6.740;2023-04-24T13:30:50;4.57;;;1.60;;
8480;SDS011;4277;51.354;6.740;2023-04-24T13:33:15;2.57;;;1.40;;
8480;SDS011;4277;51.354;6.740;2023-04-24T13:35:41;4.10;;;1.20;;
8480;SDS011;4277;51.354;6.740;2023-04-24T13:38:07;4.03;;;1.30;;
8480;SDS011;4277;51.354;6.740;2023-04-24T13:40:33;3.23;;;1.10;;
8480;SDS011;4277;51.354;6.740;2023-04-24T13:43:00;4.93;;;1.20;;
8480;SDS011;4277;51.354;6.740;2023-04-24T13:45:26;3.67;;;1.40;;
8480;SDS011;4277;51.354;6.740;2023-04-24T13:47:52;1.93;;;1.20;;
8480;SDS011;4277;51.354;6.740;2023-04-24T13:50:19;1.53;;;0.90;;
8480;SDS011;4277;51.354;6.740;2023-04-24T13:52:45;3.40;;;1.20;;
8480;SDS011;4277;51.354;6.740;2023-04-24T13:55:11;2.57;;;1.00;;
8480;SDS011;4277;51.354;6.740;2023-04-24T13:57:37;2.30;;;0.70;;
8480;SDS011;4277;51.354;6.740;2023-04-24T14:00:03;2.00;;;1.07;;
8480;SDS011;4277;51.354;6.740;2023-04-24T14:02:31;2.23;;;1.10;;
8480;SDS011;4277;51.354;6.740;2023-04-24T14:04:57;3.10;;;0.90;;
8480;SDS011;4277;51.354;6.740;2023-04-24T14:07:23;5.33;;;2.00;;
8480;SDS011;4277;51.354;6.740;2023-04-24T14:09:49;1.67;;;1.20;;
8480;SDS011;4277;51.354;6.740;2023-04-24T14:12:15;2.20;;;1.27;;
8480;SDS011;4277;51.354;6.740;2023-04-24T14:14:44;2.73;;;1.00;;
8480;SDS011;4277;51.354;6.740;2023-04-24T14:17:10;1.23;;;0.80;;
8480;SDS011;4277;51.354;6.740;2023-04-24T14:19:36;1.37;;;1.00;;
8480;SDS011;4277;51.354;6.740;2023-04-24T14:22:02;2.67;;;0.90;;
8480;SDS011;4277;51.354;6.740;2023-04-24T14:24:28;2.00;;;0.93;;
8480;SDS011;4277;51.354;6.740;2023-04-24T14:26:54;3.30;;;0.87;;
8480;SDS011;4277;51.354;6.740;2023-04-24T14:29:21;1.03;;;0.70;;
8480;SDS011;4277;51.354;6.740;2023-04-24T14:31:47;3.07;;;0.83;;
8480;SDS011;4277;51.354;6.740;2023-04-24T14:34:13;1.67;;;1.00;;
8480;SDS011;4277;51.354;6.740;2023-04-24T14:36:39;3.00;;;1.00;;
8480;SDS011;4277;51.354;6.740;2023-04-24T14:39:05;2.20;;;1.00;;
8480;SDS011;4277;51.354;6.740;2023-04-24T14:41:32;2.70;;;1.03;;
8480;SDS011;4277;51.354;6.740;2023-04-24T14:44:00;3.40;;;1.03;;
8480;SDS011;4277;51.354;6.740;2023-04-24T14:46:27;1.70;;;0.83;;
8480;SDS011;4277;51.354;6.740;2023-04-24T14:48:53;1.40;;;0.90;;
8480;SDS011;4277;51.354;6.740;2023-04-24T14:51:19;2.43;;;1.20;;
8480;SDS011;4277;51.354;6.740;2023-04-24T14:53:45;2.97;;;0.83;;
8480;SDS011;4277;51.354;6.740;2023-04-24T14:56:12;1.50;;;0.90;;
8480;SDS011;4277;51.354;6.740;2023-04-24T14:58:38;1.80;;;1.00;;
8480;SDS011;4277;51.354;6.740;2023-04-24T15:01:04;3.20;;;1.20;;
8480;SDS011;4277;51.354;6.740;2023-04-24T15:03:30;1.97;;;1.00;;
8480;SDS011;4277;51.354;6.740;2023-04-24T15:05:57;29.40;;;23.70;;
8480;SDS011;4277;51.354;6.740;2023-04-24T15:08:23;1.53;;;1.43;;
8480;SDS011;4277;51.354;6.740;2023-04-24T15:10:49;2.70;;;1.10;;
8480;SDS011;4277;51.354;6.740;2023-04-24T15:13:15;4.07;;;1.30;;
8480;SDS011;4277;51.354;6.740;2023-04-24T15:15:41;1.97;;;1.10;;
8480;SDS011;4277;51.354;6.740;2023-04-24T15:18:07;2.13;;;1.10;;
8480;SDS011;4277;51.354;6.740;2023-04-24T15:20:36;1.97;;;1.10;;
8480;SDS011;4277;51.354;6.740;2023-04-24T15:23:04;1.83;;;1.20;;